sensor_id;sensor_type;location;lat;lon;timestamp;pressure;altitude;pressure_sealevel;temperature;humidity
71907;BME280;59781;52.090;5.030;2022-08-11T00:00:11;102349.31;;;20.36;71.22
71907;BME280;59781;52.090;5.030;2022-08-11T00:02:42;102343.66;;;20.65;69.54
71907;BME280;59781;52.090;5.030;2022-08-11T00:05:16;102350.81;;;20.38;70.58
71907;BME280;59781;52.090;5.030;2022-08-11T00:07:50;102350.03;;;20.23;70.67
71907;BME280;59781;52.090;5.030;2022-08-11T00:10:25;102347.56;;;20.28;70.72
71907;BME280;59781;52.090;5.030;2022-08-11T00:12:59;102345.88;;;20.48;68.97
71907;BME280;59781;52.090;5.030;2022-08-11T00:15:38;102342.44;;;20.18;70.64
71907;BME280;59781;52.090;5.030;2022-08-11T00:18:08;102347.91;;;20.18;70.02
71907;BME280;59781;52.090;5.030;2022-08-11T00:20:41;102350.38;;;20.13;70.04
71907;BME280;59781;52.090;5.030;2022-08-11T00:23:13;102346.81;;;20.13;70.49
71907;BME280;59781;52.090;5.030;2022-08-11T00:25:44;102355.22;;;20.11;70.56
71907;BME280;59781;52.090;5.030;2022-08-11T00:30:56;102343.28;;;20.19;68.96
71907;BME280;59781;52.090;5.030;2022-08-11T00:33:32;102351.19;;;19.86;70.01
71907;BME280;59781;52.090;5.030;2022-08-11T00:36:02;102354.31;;;19.83;70.88
71907;BME280;59781;52.090;5.030;2022-08-11T00:38:33;102350.28;;;20.00;69.17
71907;BME280;59781;52.090;5.030;2022-08-11T00:44:27;102358.06;;;19.96;69.08
71907;BME280;59781;52.090;5.030;2022-08-11T01:02:12;102362.22;;;19.20;73.02
71907;BME280;59781;52.090;5.030;2022-08-11T01:11:01;102366.47;;;18.93;75.05
71907;BME280;59781;52.090;5.030;2022-08-11T01:14:14;102355.00;;;18.98;74.55
71907;BME280;59781;52.090;5.030;2022-08-11T01:26:44;102354.31;;;19.10;72.96
71907;BME280;59781;52.090;5.030;2022-08-11T01:36:26;102337.47;;;19.07;72.31
71907;BME280;59781;52.090;5.030;2022-08-11T01:46:00;102339.47;;;18.83;73.48
71907;BME280;59781;52.090;5.030;2022-08-11T01:51:22;102338.50;;;18.61;74.77
71907;BME280;59781;52.090;5.030;2022-08-11T01:56:52;102340.75;;;18.58;75.32
71907;BME280;59781;52.090;5.030;2022-08-11T01:59:42;102333.19;;;18.68;74.89
71907;BME280;59781;52.090;5.030;2022-08-11T02:05:17;102336.84;;;18.75;74.36
71907;BME280;59781;52.090;5.030;2022-08-11T02:08:39;102334.75;;;18.77;73.67
71907;BME280;59781;52.090;5.030;2022-08-11T02:11:23;102338.91;;;18.73;73.84
71907;BME280;59781;52.090;5.030;2022-08-11T02:17:10;102349.88;;;18.50;75.17
71907;BME280;59781;52.090;5.030;2022-08-11T02:26:19;102332.72;;;18.79;71.78
71907;BME280;59781;52.090;5.030;2022-08-11T02:32:28;102338.25;;;18.86;71.49
71907;BME280;59781;52.090;5.030;2022-08-11T02:35:56;102325.72;;;18.91;70.46
71907;BME280;59781;52.090;5.030;2022-08-11T02:39:02;102332.75;;;18.56;73.00
71907;BME280;59781;52.090;5.030;2022-08-11T02:41:57;102334.94;;;18.76;71.17
71907;BME280;59781;52.090;5.030;2022-08-11T02:45:11;102327.72;;;18.98;70.14
71907;BME280;59781;52.090;5.030;2022-08-11T02:51:18;102318.19;;;18.94;69.87
71907;BME280;59781;52.090;5.030;2022-08-11T02:54:07;102324.63;;;19.22;68.46
71907;BME280;59781;52.090;5.030;2022-08-11T03:02:45;102316.78;;;18.98;69.44
71907;BME280;59781;52.090;5.030;2022-08-11T03:11:06;102312.50;;;19.10;69.07
71907;BME280;59781;52.090;5.030;2022-08-11T03:17:27;102311.81;;;19.23;68.57
71907;BME280;59781;52.090;5.030;2022-08-11T03:23:36;102308.78;;;18.81;69.85
71907;BME280;59781;52.090;5.030;2022-08-11T03:29:29;102310.19;;;18.92;69.68
71907;BME280;59781;52.090;5.030;2022-08-11T03:32:33;102302.19;;;18.90;69.79
71907;BME280;59781;52.090;5.030;2022-08-11T03:35:08;102304.06;;;18.75;70.34
71907;BME280;59781;52.090;5.030;2022-08-11T03:37:50;102307.47;;;18.77;69.97
71907;BME280;59781;52.090;5.030;2022-08-11T03:43:36;102299.06;;;18.64;70.95
71907;BME280;59781;52.090;5.030;2022-08-11T03:46:26;102307.44;;;18.62;70.74
71907;BME280;59781;52.090;5.030;2022-08-11T03:52:41;102305.50;;;18.71;70.17
71907;BME280;59781;52.090;5.030;2022-08-11T03:55:39;102307.00;;;18.74;70.06
71907;BME280;59781;52.090;5.030;2022-08-11T03:59:04;102305.09;;;18.59;71.19
71907;BME280;59781;52.090;5.030;2022-08-11T04:02:15;102299.94;;;18.65;70.56
71907;BME280;59781;52.090;5.030;2022-08-11T04:08:55;102305.94;;;18.60;70.76
71907;BME280;59781;52.090;5.030;2022-08-11T04:15:13;102303.63;;;18.72;69.82
71907;BME280;59781;52.090;5.030;2022-08-11T04:22:15;102304.34;;;18.51;71.33
71907;BME280;59781;52.090;5.030;2022-08-11T04:25:10;102301.75;;;18.72;70.20
71907;BME280;59781;52.090;5.030;2022-08-11T04:30:52;102302.00;;;18.62;71.05
71907;BME280;59781;52.090;5.030;2022-08-11T04:33:33;102302.38;;;18.74;70.27
71907;BME280;59781;52.090;5.030;2022-08-11T04:36:34;102305.38;;;18.50;71.30
71907;BME280;59781;52.090;5.030;2022-08-11T04:39:39;102297.00;;;18.51;71.08
71907;BME280;59781;52.090;5.030;2022-08-11T04:52:39;102299.84;;;18.73;69.61
71907;BME280;59781;52.090;5.030;2022-08-11T05:04:55;102291.63;;;19.02;68.59
71907;BME280;59781;52.090;5.030;2022-08-11T05:11:11;102292.59;;;19.52;67.11
71907;BME280;59781;52.090;5.030;2022-08-11T05:13:50;102294.00;;;19.27;67.23
71907;BME280;59781;52.090;5.030;2022-08-11T05:16:52;102291.25;;;19.27;67.05
71907;BME280;59781;52.090;5.030;2022-08-11T05:19:45;102293.84;;;19.49;67.02
71907;BME280;59781;52.090;5.030;2022-08-11T05:22:33;102288.69;;;19.83;65.59
71907;BME280;59781;52.090;5.030;2022-08-11T05:25:29;102290.94;;;19.36;67.39
71907;BME280;59781;52.090;5.030;2022-08-11T05:28:33;102289.66;;;19.54;66.46
71907;BME280;59781;52.090;5.030;2022-08-11T05:31:25;102293.66;;;19.72;65.45
71907;BME280;59781;52.090;5.030;2022-08-11T05:34:27;102289.84;;;19.95;64.59
71907;BME280;59781;52.090;5.030;2022-08-11T05:37:22;102292.44;;;20.03;64.00
71907;BME280;59781;52.090;5.030;2022-08-11T05:40:11;102299.22;;;20.07;63.86
71907;BME280;59781;52.090;5.030;2022-08-11T05:43:00;102305.19;;;20.17;63.33
71907;BME280;59781;52.090;5.030;2022-08-11T05:46:00;102303.59;;;21.80;58.57
71907;BME280;59781;52.090;5.030;2022-08-11T05:48:47;102305.06;;;21.89;58.03
71907;BME280;59781;52.090;5.030;2022-08-11T05:51:43;102311.59;;;21.68;57.53
71907;BME280;59781;52.090;5.030;2022-08-11T05:54:29;102303.44;;;22.99;53.85
71907;BME280;59781;52.090;5.030;2022-08-11T05:57:21;102297.16;;;23.30;52.68
71907;BME280;59781;52.090;5.030;2022-08-11T05:59:58;102306.00;;;22.94;53.96
71907;BME280;59781;52.090;5.030;2022-08-11T06:02:27;102294.81;;;23.33;52.22
71907;BME280;59781;52.090;5.030;2022-08-11T06:04:56;102291.50;;;23.56;51.66
71907;BME280;59781;52.090;5.030;2022-08-11T06:07:31;102299.34;;;23.21;52.98
71907;BME280;59781;52.090;5.030;2022-08-11T06:09:59;102294.38;;;23.99;51.07
71907;BME280;59781;52.090;5.030;2022-08-11T06:12:31;102310.28;;;23.66;50.36
71907;BME280;59781;52.090;5.030;2022-08-11T06:15:07;102301.19;;;24.15;50.19
71907;BME280;59781;52.090;5.030;2022-08-11T06:17:44;102297.78;;;24.81;48.28
71907;BME280;59781;52.090;5.030;2022-08-11T06:20:15;102303.19;;;25.06;47.13
71907;BME280;59781;52.090;5.030;2022-08-11T06:23:03;102297.69;;;25.36;46.81
71907;BME280;59781;52.090;5.030;2022-08-11T06:25:34;102298.97;;;24.67;47.81
71907;BME280;59781;52.090;5.030;2022-08-11T06:28:06;102306.03;;;25.18;47.89
71907;BME280;59781;52.090;5.030;2022-08-11T06:30:44;102297.31;;;25.33;45.33
71907;BME280;59781;52.090;5.030;2022-08-11T06:33:17;102305.91;;;25.55;45.48
71907;BME280;59781;52.090;5.030;2022-08-11T06:41:45;102302.78;;;26.05;43.28
71907;BME280;59781;52.090;5.030;2022-08-11T06:44:28;102296.66;;;26.02;42.95
71907;BME280;59781;52.090;5.030;2022-08-11T06:47:07;102302.91;;;25.56;44.20
71907;BME280;59781;52.090;5.030;2022-08-11T06:49:46;102302.03;;;25.14;44.96
71907;BME280;59781;52.090;5.030;2022-08-11T06:52:36;102294.28;;;26.53;42.95
71907;BME280;59781;52.090;5.030;2022-08-11T06:55:23;102299.06;;;27.21;41.69
71907;BME280;59781;52.090;5.030;2022-08-11T06:58:15;102294.63;;;26.21;42.68
71907;BME280;59781;52.090;5.030;2022-08-11T07:01:14;102288.69;;;26.88;41.31
71907;BME280;59781;52.090;5.030;2022-08-11T07:03:51;102283.03;;;27.52;39.69
71907;BME280;59781;52.090;5.030;2022-08-11T07:09:23;102293.56;;;28.00;38.66
71907;BME280;59781;52.090;5.030;2022-08-11T07:12:44;102295.28;;;26.47;41.34
71907;BME280;59781;52.090;5.030;2022-08-11T07:15:38;102290.53;;;27.68;38.86
71907;BME280;59781;52.090;5.030;2022-08-11T07:18:14;102288.19;;;27.31;39.67
71907;BME280;59781;52.090;5.030;2022-08-11T07:21:11;102296.38;;;27.55;38.53
71907;BME280;59781;52.090;5.030;2022-08-11T07:24:02;102293.06;;;27.12;40.56
71907;BME280;59781;52.090;5.030;2022-08-11T07:26:56;102299.84;;;28.29;38.11
71907;BME280;59781;52.090;5.030;2022-08-11T07:29:45;102290.38;;;28.85;37.13
71907;BME280;59781;52.090;5.030;2022-08-11T07:32:26;102289.88;;;29.37;35.34
71907;BME280;59781;52.090;5.030;2022-08-11T07:37:47;102294.63;;;29.15;35.67
71907;BME280;59781;52.090;5.030;2022-08-11T07:40:22;102291.72;;;29.81;34.88
71907;BME280;59781;52.090;5.030;2022-08-11T07:42:51;102297.09;;;29.11;35.28
71907;BME280;59781;52.090;5.030;2022-08-11T07:45:22;102287.56;;;29.51;34.32
71907;BME280;59781;52.090;5.030;2022-08-11T07:48:11;102291.16;;;30.16;32.28
71907;BME280;59781;52.090;5.030;2022-08-11T07:51:00;102287.66;;;30.36;33.51
71907;BME280;59781;52.090;5.030;2022-08-11T07:53:47;102292.66;;;29.96;32.10
71907;BME280;59781;52.090;5.030;2022-08-11T07:56:16;102293.00;;;30.47;32.11
71907;BME280;59781;52.090;5.030;2022-08-11T07:58:44;102291.69;;;30.13;32.66
71907;BME280;59781;52.090;5.030;2022-08-11T08:01:30;102286.22;;;30.70;31.51
71907;BME280;59781;52.090;5.030;2022-08-11T08:04:17;102287.31;;;31.93;29.90
71907;BME280;59781;52.090;5.030;2022-08-11T08:07:04;102280.56;;;32.24;27.86
71907;BME280;59781;52.090;5.030;2022-08-11T08:09:50;102284.25;;;32.00;29.77
71907;BME280;59781;52.090;5.030;2022-08-11T08:12:35;102289.25;;;31.52;29.65
71907;BME280;59781;52.090;5.030;2022-08-11T08:15:21;102287.59;;;31.71;29.35
71907;BME280;59781;52.090;5.030;2022-08-11T08:18:07;102289.56;;;32.01;30.66
71907;BME280;59781;52.090;5.030;2022-08-11T08:20:45;102283.97;;;32.01;27.88
71907;BME280;59781;52.090;5.030;2022-08-11T08:23:19;102283.41;;;32.04;27.84
71907;BME280;59781;52.090;5.030;2022-08-11T08:26:02;102286.78;;;31.86;28.20
71907;BME280;59781;52.090;5.030;2022-08-11T08:28:55;102287.69;;;33.31;25.03
71907;BME280;59781;52.090;5.030;2022-08-11T08:31:46;102290.88;;;31.32;27.90
71907;BME280;59781;52.090;5.030;2022-08-11T08:34:15;102286.44;;;32.38;27.89
71907;BME280;59781;52.090;5.030;2022-08-11T08:36:43;102288.97;;;33.09;25.36
71907;BME280;59781;52.090;5.030;2022-08-11T08:39:13;102285.31;;;32.29;27.07
71907;BME280;59781;52.090;5.030;2022-08-11T08:41:42;102283.22;;;32.80;28.90
71907;BME280;59781;52.090;5.030;2022-08-11T08:44:12;102269.56;;;33.67;25.69
71907;BME280;59781;52.090;5.030;2022-08-11T08:46:46;102272.56;;;31.87;27.64
71907;BME280;59781;52.090;5.030;2022-08-11T08:49:22;102281.56;;;32.85;28.64
71907;BME280;59781;52.090;5.030;2022-08-11T08:52:00;102276.97;;;33.09;26.21
71907;BME280;59781;52.090;5.030;2022-08-11T08:54:41;102276.84;;;34.56;25.14
71907;BME280;59781;52.090;5.030;2022-08-11T08:57:12;102271.00;;;33.99;25.71
71907;BME280;59781;52.090;5.030;2022-08-11T08:59:41;102273.28;;;33.92;25.80
71907;BME280;59781;52.090;5.030;2022-08-11T09:02:11;102275.44;;;34.00;25.20
71907;BME280;59781;52.090;5.030;2022-08-11T09:04:39;102271.66;;;33.86;25.14
71907;BME280;59781;52.090;5.030;2022-08-11T09:07:12;102273.09;;;34.12;26.20
71907;BME280;59781;52.090;5.030;2022-08-11T09:09:47;102270.41;;;34.02;24.10
71907;BME280;59781;52.090;5.030;2022-08-11T09:12:16;102282.94;;;33.76;23.67
71907;BME280;59781;52.090;5.030;2022-08-11T09:14:48;102274.59;;;34.05;23.28
71907;BME280;59781;52.090;5.030;2022-08-11T09:17:27;102279.25;;;33.46;24.00
71907;BME280;59781;52.090;5.030;2022-08-11T09:19:59;102261.44;;;33.71;22.94
71907;BME280;59781;52.090;5.030;2022-08-11T09:22:33;102266.56;;;33.59;23.50
71907;BME280;59781;52.090;5.030;2022-08-11T09:25:21;102267.38;;;34.52;23.43
71907;BME280;59781;52.090;5.030;2022-08-11T09:28:13;102266.56;;;35.83;23.03
71907;BME280;59781;52.090;5.030;2022-08-11T09:30:47;102254.09;;;35.43;22.17
71907;BME280;59781;52.090;5.030;2022-08-11T09:33:20;102256.94;;;35.38;22.56
71907;BME280;59781;52.090;5.030;2022-08-11T09:35:50;102251.50;;;35.46;22.16
71907;BME280;59781;52.090;5.030;2022-08-11T09:38:19;102250.50;;;35.37;22.42
71907;BME280;59781;52.090;5.030;2022-08-11T09:41:08;102256.47;;;34.50;23.05
71907;BME280;59781;52.090;5.030;2022-08-11T09:43:38;102245.47;;;35.01;22.59
71907;BME280;59781;52.090;5.030;2022-08-11T09:46:32;102242.66;;;35.20;20.64
71907;BME280;59781;52.090;5.030;2022-08-11T09:49:00;102255.25;;;34.08;22.80
71907;BME280;59781;52.090;5.030;2022-08-11T09:51:30;102245.41;;;34.64;23.47
71907;BME280;59781;52.090;5.030;2022-08-11T09:54:03;102232.97;;;35.13;22.96
71907;BME280;59781;52.090;5.030;2022-08-11T09:56:33;102239.06;;;35.33;24.49
71907;BME280;59781;52.090;5.030;2022-08-11T09:59:21;102245.19;;;35.87;21.96
71907;BME280;59781;52.090;5.030;2022-08-11T10:01:54;102231.22;;;36.01;19.82
71907;BME280;59781;52.090;5.030;2022-08-11T10:04:34;102243.31;;;35.31;21.06
71907;BME280;59781;52.090;5.030;2022-08-11T10:07:06;102244.69;;;35.52;20.46
71907;BME280;59781;52.090;5.030;2022-08-11T10:09:50;102239.50;;;34.84;22.03
71907;BME280;59781;52.090;5.030;2022-08-11T10:12:41;102236.59;;;35.97;21.45
71907;BME280;59781;52.090;5.030;2022-08-11T10:15:17;102230.84;;;36.48;21.90
71907;BME280;59781;52.090;5.030;2022-08-11T10:18:10;102233.19;;;35.68;20.31
71907;BME280;59781;52.090;5.030;2022-08-11T10:21:10;102229.47;;;34.59;20.39
71907;BME280;59781;52.090;5.030;2022-08-11T10:23:39;102225.44;;;36.38;19.35
71907;BME280;59781;52.090;5.030;2022-08-11T10:26:28;102220.00;;;36.01;18.50
71907;BME280;59781;52.090;5.030;2022-08-11T10:29:38;102219.16;;;36.14;18.65
71907;BME280;59781;52.090;5.030;2022-08-11T10:32:28;102220.72;;;36.06;18.73
71907;BME280;59781;52.090;5.030;2022-08-11T10:35:30;102219.34;;;35.06;18.67
71907;BME280;59781;52.090;5.030;2022-08-11T10:37:58;102227.63;;;35.49;18.69
71907;BME280;59781;52.090;5.030;2022-08-11T10:40:25;102220.81;;;35.87;18.53
71907;BME280;59781;52.090;5.030;2022-08-11T10:42:58;102229.81;;;35.84;18.74
71907;BME280;59781;52.090;5.030;2022-08-11T10:45:30;102216.16;;;35.13;19.16
71907;BME280;59781;52.090;5.030;2022-08-11T10:48:25;102213.44;;;35.07;19.38
71907;BME280;59781;52.090;5.030;2022-08-11T10:50:54;102206.53;;;35.84;18.30
71907;BME280;59781;52.090;5.030;2022-08-11T10:53:47;102208.94;;;35.25;19.50
71907;BME280;59781;52.090;5.030;2022-08-11T10:56:37;102210.13;;;36.31;18.00
71907;BME280;59781;52.090;5.030;2022-08-11T10:59:26;102207.94;;;35.54;17.97
71907;BME280;59781;52.090;5.030;2022-08-11T11:01:56;102204.84;;;36.29;17.58
71907;BME280;59781;52.090;5.030;2022-08-11T11:05:11;102206.28;;;35.53;18.02
71907;BME280;59781;52.090;5.030;2022-08-11T11:07:51;102204.56;;;35.84;18.06
71907;BME280;59781;52.090;5.030;2022-08-11T11:10:24;102202.28;;;35.86;18.21
71907;BME280;59781;52.090;5.030;2022-08-11T11:12:54;102195.41;;;35.65;17.99
71907;BME280;59781;52.090;5.030;2022-08-11T11:15:44;102189.91;;;35.74;17.40
71907;BME280;59781;52.090;5.030;2022-08-11T11:18:34;102196.09;;;35.24;18.98
71907;BME280;59781;52.090;5.030;2022-08-11T11:21:06;102189.31;;;35.12;18.48
71907;BME280;59781;52.090;5.030;2022-08-11T11:26:46;102201.59;;;35.29;18.86
71907;BME280;59781;52.090;5.030;2022-08-11T11:37:52;102184.44;;;35.82;19.10
71907;BME280;59781;52.090;5.030;2022-08-11T11:40:22;102186.63;;;36.27;18.57
71907;BME280;59781;52.090;5.030;2022-08-11T11:42:50;102186.78;;;35.61;19.89
71907;BME280;59781;52.090;5.030;2022-08-11T11:45:20;102185.59;;;35.30;18.64
71907;BME280;59781;52.090;5.030;2022-08-11T11:47:51;102195.16;;;35.29;19.40
71907;BME280;59781;52.090;5.030;2022-08-11T11:50:41;102187.06;;;36.47;17.65
71907;BME280;59781;52.090;5.030;2022-08-11T11:53:11;102185.78;;;35.20;19.21
71907;BME280;59781;52.090;5.030;2022-08-11T11:55:37;102179.28;;;35.43;19.05
71907;BME280;59781;52.090;5.030;2022-08-11T11:58:04;102181.31;;;35.70;19.05
71907;BME280;59781;52.090;5.030;2022-08-11T12:00:52;102175.63;;;36.16;18.44
71907;BME280;59781;52.090;5.030;2022-08-11T12:03:38;102161.19;;;36.51;17.96
71907;BME280;59781;52.090;5.030;2022-08-11T12:06:07;102162.59;;;35.52;18.62
71907;BME280;59781;52.090;5.030;2022-08-11T12:08:36;102162.47;;;35.89;18.63
71907;BME280;59781;52.090;5.030;2022-08-11T12:11:06;102158.31;;;36.01;19.21
71907;BME280;59781;52.090;5.030;2022-08-11T12:13:56;102152.78;;;36.37;18.54
71907;BME280;59781;52.090;5.030;2022-08-11T12:16:26;102154.38;;;36.65;18.09
71907;BME280;59781;52.090;5.030;2022-08-11T12:18:57;102149.09;;;37.00;17.44
71907;BME280;59781;52.090;5.030;2022-08-11T12:21:26;102157.03;;;36.34;17.88
71907;BME280;59781;52.090;5.030;2022-08-11T12:24:00;102156.84;;;35.89;17.99
71907;BME280;59781;52.090;5.030;2022-08-11T12:26:46;102141.75;;;35.85;17.38
71907;BME280;59781;52.090;5.030;2022-08-11T12:29:16;102135.06;;;35.54;18.33
71907;BME280;59781;52.090;5.030;2022-08-11T12:31:53;102127.44;;;36.78;17.64
71907;BME280;59781;52.090;5.030;2022-08-11T12:34:20;102135.44;;;36.48;18.03
71907;BME280;59781;52.090;5.030;2022-08-11T12:37:00;102130.19;;;36.92;16.93
71907;BME280;59781;52.090;5.030;2022-08-11T12:39:50;102124.50;;;36.83;17.17
71907;BME280;59781;52.090;5.030;2022-08-11T12:42:42;102128.75;;;36.44;19.10
71907;BME280;59781;52.090;5.030;2022-08-11T12:45:31;102121.59;;;36.25;17.28
71907;BME280;59781;52.090;5.030;2022-08-11T12:51:01;102116.72;;;36.16;17.41
71907;BME280;59781;52.090;5.030;2022-08-11T12:54:43;102120.59;;;35.79;18.02
71907;BME280;59781;52.090;5.030;2022-08-11T12:57:34;102114.53;;;36.41;18.24
71907;BME280;59781;52.090;5.030;2022-08-11T13:00:22;102109.72;;;36.55;16.92
71907;BME280;59781;52.090;5.030;2022-08-11T13:03:10;102119.53;;;36.30;17.47
71907;BME280;59781;52.090;5.030;2022-08-11T13:06:00;102113.13;;;36.02;17.78
71907;BME280;59781;52.090;5.030;2022-08-11T13:08:33;102104.22;;;36.50;18.06
71907;BME280;59781;52.090;5.030;2022-08-11T13:11:03;102108.63;;;36.29;17.10
71907;BME280;59781;52.090;5.030;2022-08-11T13:14:07;102108.22;;;36.35;17.38
71907;BME280;59781;52.090;5.030;2022-08-11T13:16:36;102095.31;;;35.66;18.10
71907;BME280;59781;52.090;5.030;2022-08-11T13:19:22;102091.50;;;37.33;17.66
71907;BME280;59781;52.090;5.030;2022-08-11T13:21:51;102097.91;;;37.03;17.66
71907;BME280;59781;52.090;5.030;2022-08-11T13:24:20;102092.94;;;36.41;17.20
71907;BME280;59781;52.090;5.030;2022-08-11T13:26:48;102090.84;;;36.69;19.55
71907;BME280;59781;52.090;5.030;2022-08-11T13:29:23;102085.75;;;36.49;18.17
71907;BME280;59781;52.090;5.030;2022-08-11T13:31:57;102075.19;;;35.50;18.06
71907;BME280;59781;52.090;5.030;2022-08-11T13:34:26;102083.59;;;35.17;18.34
71907;BME280;59781;52.090;5.030;2022-08-11T13:36:58;102077.38;;;35.80;17.18
71907;BME280;59781;52.090;5.030;2022-08-11T13:39:29;102082.25;;;35.61;17.68
71907;BME280;59781;52.090;5.030;2022-08-11T13:41:59;102079.03;;;35.81;17.84
71907;BME280;59781;52.090;5.030;2022-08-11T13:44:30;102079.66;;;35.78;18.58
71907;BME280;59781;52.090;5.030;2022-08-11T13:49:38;102079.06;;;35.95;17.21
71907;BME280;59781;52.090;5.030;2022-08-11T13:52:09;102070.47;;;36.28;18.35
71907;BME280;59781;52.090;5.030;2022-08-11T13:54:39;102074.84;;;36.70;17.48
71907;BME280;59781;52.090;5.030;2022-08-11T13:57:10;102067.94;;;36.04;18.38
71907;BME280;59781;52.090;5.030;2022-08-11T13:59:39;102071.91;;;35.29;18.28
71907;BME280;59781;52.090;5.030;2022-08-11T14:02:14;102068.59;;;35.27;18.84
71907;BME280;59781;52.090;5.030;2022-08-11T14:05:00;102059.16;;;34.90;19.69
71907;BME280;59781;52.090;5.030;2022-08-11T14:07:56;102059.53;;;35.16;19.20
71907;BME280;59781;52.090;5.030;2022-08-11T14:10:29;102050.88;;;34.80;19.23
71907;BME280;59781;52.090;5.030;2022-08-11T14:13:05;102052.34;;;35.56;18.33
71907;BME280;59781;52.090;5.030;2022-08-11T14:15:59;102038.88;;;35.72;19.04
71907;BME280;59781;52.090;5.030;2022-08-11T14:18:30;102042.03;;;36.20;17.57
71907;BME280;59781;52.090;5.030;2022-08-11T14:21:00;102041.72;;;36.08;17.38
71907;BME280;59781;52.090;5.030;2022-08-11T14:23:53;102046.75;;;36.47;17.20
71907;BME280;59781;52.090;5.030;2022-08-11T14:26:25;102038.72;;;34.71;18.92
71907;BME280;59781;52.090;5.030;2022-08-11T14:29:20;102037.72;;;34.80;18.71
71907;BME280;59781;52.090;5.030;2022-08-11T14:31:56;102033.66;;;34.92;18.73
71907;BME280;59781;52.090;5.030;2022-08-11T14:34:27;102030.63;;;35.21;22.50
71907;BME280;59781;52.090;5.030;2022-08-11T14:37:10;102031.50;;;35.62;21.62
71907;BME280;59781;52.090;5.030;2022-08-11T14:39:51;102035.53;;;35.56;23.08
71907;BME280;59781;52.090;5.030;2022-08-11T14:42:20;102029.44;;;35.41;23.58
71907;BME280;59781;52.090;5.030;2022-08-11T14:45:13;102030.47;;;34.79;25.04
71907;BME280;59781;52.090;5.030;2022-08-11T14:48:08;102025.88;;;34.70;24.66
71907;BME280;59781;52.090;5.030;2022-08-11T14:50:35;102027.09;;;34.07;24.93
71907;BME280;59781;52.090;5.030;2022-08-11T14:53:05;102017.38;;;34.61;23.47
71907;BME280;59781;52.090;5.030;2022-08-11T14:55:38;102023.34;;;34.55;25.14
71907;BME280;59781;52.090;5.030;2022-08-11T14:58:27;102018.78;;;34.59;26.13
71907;BME280;59781;52.090;5.030;2022-08-11T15:00:57;102019.00;;;34.81;25.03
71907;BME280;59781;52.090;5.030;2022-08-11T15:03:27;102010.16;;;34.36;25.12
71907;BME280;59781;52.090;5.030;2022-08-11T15:06:00;102011.41;;;34.49;25.97
71907;BME280;59781;52.090;5.030;2022-08-11T15:08:35;102010.25;;;34.31;27.13
71907;BME280;59781;52.090;5.030;2022-08-11T15:11:29;102010.03;;;34.46;24.98
71907;BME280;59781;52.090;5.030;2022-08-11T15:14:25;102004.88;;;33.97;26.39
71907;BME280;59781;52.090;5.030;2022-08-11T15:17:11;102002.84;;;33.79;26.32
71907;BME280;59781;52.090;5.030;2022-08-11T15:19:40;101998.00;;;34.08;26.55
71907;BME280;59781;52.090;5.030;2022-08-11T15:22:28;102005.19;;;33.96;26.15
71907;BME280;59781;52.090;5.030;2022-08-11T15:25:14;101988.97;;;33.26;26.55
71907;BME280;59781;52.090;5.030;2022-08-11T15:27:42;101997.19;;;33.12;27.46
71907;BME280;59781;52.090;5.030;2022-08-11T15:30:29;101992.69;;;33.16;27.50
71907;BME280;59781;52.090;5.030;2022-08-11T15:33:17;101997.78;;;33.38;27.23
71907;BME280;59781;52.090;5.030;2022-08-11T15:36:06;101991.38;;;33.32;26.63
71907;BME280;59781;52.090;5.030;2022-08-11T15:38:58;101984.25;;;33.69;26.63
71907;BME280;59781;52.090;5.030;2022-08-11T15:41:43;101967.63;;;33.35;26.74
71907;BME280;59781;52.090;5.030;2022-08-11T15:44:36;101975.75;;;33.07;27.75
71907;BME280;59781;52.090;5.030;2022-08-11T15:47:35;101978.56;;;32.73;28.92
71907;BME280;59781;52.090;5.030;2022-08-11T15:50:05;101975.25;;;32.37;28.32
71907;BME280;59781;52.090;5.030;2022-08-11T15:52:47;101989.41;;;32.46;28.61
71907;BME280;59781;52.090;5.030;2022-08-11T15:55:18;101982.59;;;32.18;29.64
71907;BME280;59781;52.090;5.030;2022-08-11T15:57:50;101973.63;;;31.82;29.88
71907;BME280;59781;52.090;5.030;2022-08-11T16:00:41;101969.06;;;32.01;30.14
71907;BME280;59781;52.090;5.030;2022-08-11T16:03:32;101974.25;;;32.18;29.59
71907;BME280;59781;52.090;5.030;2022-08-11T16:06:50;101961.09;;;31.79;30.23
71907;BME280;59781;52.090;5.030;2022-08-11T16:09:25;101963.34;;;31.72;29.90
71907;BME280;59781;52.090;5.030;2022-08-11T16:12:01;101955.75;;;31.88;29.90
71907;BME280;59781;52.090;5.030;2022-08-11T16:14:34;101958.91;;;31.76;30.05
71907;BME280;59781;52.090;5.030;2022-08-11T16:17:26;101966.44;;;31.60;30.78
71907;BME280;59781;52.090;5.030;2022-08-11T16:19:56;101952.69;;;31.89;29.02
71907;BME280;59781;52.090;5.030;2022-08-11T16:22:27;101960.84;;;31.65;29.92
71907;BME280;59781;52.090;5.030;2022-08-11T16:25:05;101960.09;;;31.50;30.76
71907;BME280;59781;52.090;5.030;2022-08-11T16:27:45;101958.16;;;31.50;30.37
71907;BME280;59781;52.090;5.030;2022-08-11T16:30:14;101949.16;;;31.63;28.87
71907;BME280;59781;52.090;5.030;2022-08-11T16:32:43;101953.16;;;31.47;31.20
71907;BME280;59781;52.090;5.030;2022-08-11T16:35:15;101950.28;;;31.67;31.14
71907;BME280;59781;52.090;5.030;2022-08-11T16:38:05;101956.72;;;31.58;30.25
71907;BME280;59781;52.090;5.030;2022-08-11T16:40:52;101948.78;;;31.05;25.88
71907;BME280;59781;52.090;5.030;2022-08-11T16:43:23;101950.75;;;31.20;25.86
71907;BME280;59781;52.090;5.030;2022-08-11T16:46:14;101941.22;;;31.26;25.18
71907;BME280;59781;52.090;5.030;2022-08-11T16:49:16;101946.53;;;31.23;25.76
71907;BME280;59781;52.090;5.030;2022-08-11T16:51:57;101951.28;;;31.27;25.80
71907;BME280;59781;52.090;5.030;2022-08-11T16:54:32;101954.34;;;31.05;26.52